createdAt,value
2022-08-20T00:00:57.775Z,61.10
2022-08-20T00:03:37.084Z,61.38
2022-08-20T00:06:15.793Z,61.43
2022-08-20T00:08:43.356Z,61.58
2022-08-20T00:11:12.838Z,62.37
2022-08-20T00:13:43.764Z,63.07
2022-08-20T00:16:11.474Z,64.05
2022-08-20T00:18:38.979Z,64.92
2022-08-20T00:21:09.070Z,65.33
2022-08-20T00:23:40.501Z,65.37
2022-08-20T00:26:07.883Z,66.32
2022-08-20T00:28:35.082Z,66.16
2022-08-20T00:31:04.819Z,66.08
2022-08-20T00:33:31.414Z,65.57
2022-08-20T00:35:57.891Z,65.90
2022-08-20T00:38:25.964Z,65.56
2022-08-20T00:40:59.230Z,64.90
2022-08-20T00:43:41.623Z,64.55
2022-08-20T00:46:12.141Z,64.49
2022-08-20T00:48:42.302Z,64.10
2022-08-20T00:51:15.191Z,63.62
2022-08-20T00:53:42.760Z,63.55
2022-08-20T00:56:11.038Z,63.72
2022-08-20T00:58:39.927Z,63.41
2022-08-20T01:01:08.105Z,63.36
2022-08-20T01:03:34.892Z,62.69
2022-08-20T01:06:01.571Z,62.39
2022-08-20T01:08:28.018Z,62.17
2022-08-20T01:11:15.318Z,62.47
2022-08-20T01:13:43.585Z,62.15
2022-08-20T01:16:26.567Z,62.28
2022-08-20T01:18:57.623Z,62.27
2022-08-20T01:21:31.517Z,62.00
2022-08-20T01:24:21.065Z,62.51
2022-08-20T01:26:49.200Z,62.63
2022-08-20T01:29:20.506Z,62.55
2022-08-20T01:31:47.665Z,62.10
2022-08-20T01:34:17.607Z,62.28
2022-08-20T01:36:51.945Z,62.95
2022-08-20T01:39:26.633Z,63.22
2022-08-20T01:42:16.088Z,63.21
2022-08-20T01:44:44.840Z,62.92
2022-08-20T01:47:19.775Z,63.25
2022-08-20T01:49:51.317Z,63.33
2022-08-20T01:52:36.803Z,63.85
2022-08-20T01:55:04.811Z,63.65
2022-08-20T01:57:31.568Z,63.23
2022-08-20T01:59:58.104Z,63.38
2022-08-20T02:02:28.118Z,62.78
2022-08-20T02:04:55.063Z,63.09
2022-08-20T02:07:24.973Z,63.01
2022-08-20T02:09:51.396Z,63.02
2022-08-20T02:12:18.709Z,62.75
2022-08-20T02:15:19.901Z,62.84
2022-08-20T02:18:05.437Z,62.81
2022-08-20T02:20:35.955Z,62.82
2022-08-20T02:23:04.023Z,63.20
2022-08-20T02:25:33.354Z,63.34
2022-08-20T02:28:07.861Z,63.23
2022-08-20T02:30:39.197Z,64.04
2022-08-20T02:33:10.211Z,64.72
2022-08-20T02:35:38.455Z,64.52
2022-08-20T02:38:05.135Z,64.65
2022-08-20T02:40:32.049Z,64.87
2022-08-20T02:43:02.634Z,64.67
2022-08-20T02:45:37.097Z,65.00
2022-08-20T02:48:04.372Z,64.68
2022-08-20T02:50:31.549Z,64.70
2022-08-20T02:52:57.984Z,64.65
2022-08-20T02:55:27.630Z,64.90
2022-08-20T02:58:00.581Z,64.37
2022-08-20T03:00:38.183Z,64.56
2022-08-20T03:03:08.155Z,64.03
2022-08-20T03:05:35.267Z,63.97
2022-08-20T03:08:03.756Z,64.20
2022-08-20T03:10:33.958Z,63.72
2022-08-20T03:13:02.615Z,64.59
2022-08-20T03:15:31.956Z,64.63
2022-08-20T03:17:59.282Z,64.73
2022-08-20T03:20:26.926Z,65.42
2022-08-20T03:22:55.101Z,65.86
2022-08-20T03:25:21.979Z,66.29
2022-08-20T03:27:53.955Z,67.01
2022-08-20T03:30:25.045Z,68.26
2022-08-20T03:32:51.774Z,68.15
2022-08-20T03:35:25.190Z,69.06
2022-08-20T03:37:59.883Z,69.01
2022-08-20T03:40:30.531Z,69.09
2022-08-20T03:42:58.447Z,69.20
2022-08-20T03:45:27.754Z,69.85
2022-08-20T03:47:55.294Z,70.67
2022-08-20T03:50:26.856Z,71.19
2022-08-20T03:52:55.086Z,72.62
2022-08-20T03:55:23.253Z,73.48
2022-08-20T03:57:54.357Z,74.95
2022-08-20T04:00:29.295Z,76.08
2022-08-20T04:02:57.119Z,78.09
2022-08-20T04:05:25.464Z,79.79
2022-08-20T04:08:00.201Z,81.62
2022-08-20T04:10:30.759Z,84.04
2022-08-20T04:12:57.701Z,85.41
2022-08-20T04:15:25.048Z,85.74
2022-08-20T04:17:53.245Z,87.51
2022-08-20T04:20:26.158Z,87.61
2022-08-20T04:22:59.193Z,87.46
2022-08-20T04:25:52.032Z,87.46
2022-08-20T04:28:26.942Z,87.33
2022-08-20T04:30:55.327Z,87.15
2022-08-20T04:33:34.027Z,87.51
2022-08-20T04:36:05.813Z,87.27
2022-08-20T04:38:49.793Z,85.66
2022-08-20T04:41:22.979Z,85.38
2022-08-20T04:43:55.199Z,84.66
2022-08-20T04:46:25.799Z,84.81
2022-08-20T04:48:53.139Z,84.44
2022-08-20T04:51:22.951Z,83.74
2022-08-20T04:53:53.644Z,83.84
2022-08-20T04:56:28.647Z,83.85
2022-08-20T04:58:58.069Z,83.85
2022-08-20T05:01:26.325Z,83.53
2022-08-20T05:03:55.351Z,82.66
2022-08-20T05:06:25.723Z,82.96
2022-08-20T05:08:56.963Z,82.85
2022-08-20T05:11:33.946Z,83.16
2022-08-20T05:14:05.472Z,82.50
2022-08-20T05:16:37.501Z,83.17
2022-08-20T05:19:04.125Z,82.58
2022-08-20T05:21:30.751Z,82.95
2022-08-20T05:23:57.172Z,82.19
2022-08-20T05:26:26.995Z,82.14
2022-08-20T05:28:58.335Z,81.81
2022-08-20T05:31:31.797Z,81.67
2022-08-20T05:34:09.410Z,81.30
2022-08-20T05:36:42.848Z,81.56
2022-08-20T05:39:10.463Z,81.07
2022-08-20T05:41:38.382Z,81.17
2022-08-20T05:44:09.815Z,80.83
2022-08-20T05:46:40.976Z,81.19
2022-08-20T05:49:09.877Z,81.12
2022-08-20T05:51:37.435Z,81.26
2022-08-20T05:54:06.046Z,80.90
2022-08-20T05:56:33.886Z,82.05
2022-08-20T05:59:03.903Z,83.18
2022-08-20T06:01:31.628Z,83.06
2022-08-20T06:04:17.435Z,83.77
2022-08-20T06:06:45.611Z,84.07
2022-08-20T06:09:14.486Z,84.71
2022-08-20T06:11:41.470Z,85.28
2022-08-20T06:14:08.035Z,85.64
2022-08-20T06:16:34.674Z,85.76
2022-08-20T06:19:04.761Z,86.52
2022-08-20T06:21:31.395Z,86.75
2022-08-20T06:24:01.667Z,86.99
2022-08-20T06:26:29.920Z,87.19
2022-08-20T06:29:04.534Z,87.36
2022-08-20T06:31:31.126Z,87.06
2022-08-20T06:33:58.073Z,87.25
2022-08-20T06:36:25.335Z,86.86
2022-08-20T06:38:51.867Z,87.00
2022-08-20T06:41:18.797Z,86.86
2022-08-20T06:43:45.212Z,87.69
2022-08-20T06:46:12.865Z,86.55
2022-08-20T06:48:39.403Z,85.55
2022-08-20T06:51:06.743Z,84.71
2022-08-20T06:53:33.378Z,84.04
2022-08-20T06:56:00.622Z,84.08
2022-08-20T06:58:37.557Z,83.94
2022-08-20T07:01:11.394Z,83.45
2022-08-20T07:03:40.553Z,82.51
2022-08-20T07:06:25.941Z,82.09
2022-08-20T07:08:54.521Z,81.22
2022-08-20T07:11:27.414Z,80.96
2022-08-20T07:13:57.082Z,81.15
2022-08-20T07:16:25.482Z,79.47
2022-08-20T07:18:52.111Z,79.70
2022-08-20T07:21:18.609Z,80.66
2022-08-20T07:23:45.324Z,79.54
2022-08-20T07:26:12.894Z,79.51
2022-08-20T07:28:39.369Z,79.95
2022-08-20T07:31:24.696Z,80.35
2022-08-20T07:33:51.281Z,80.25
2022-08-20T07:36:20.283Z,79.05
2022-08-20T07:38:50.777Z,78.90
2022-08-20T07:41:17.415Z,79.68
2022-08-20T07:43:47.737Z,78.99
2022-08-20T07:46:24.693Z,79.21
2022-08-20T07:48:58.702Z,78.80
2022-08-20T07:51:25.583Z,78.03
2022-08-20T07:53:53.563Z,77.65
2022-08-20T07:56:28.312Z,77.50
2022-08-20T07:59:02.097Z,78.30
2022-08-20T08:01:31.776Z,77.12
2022-08-20T08:04:04.020Z,76.49
2022-08-20T08:06:31.820Z,75.00
2022-08-20T08:09:10.884Z,75.86
2022-08-20T08:11:46.399Z,75.67
2022-08-20T08:14:16.209Z,75.32
2022-08-20T08:16:45.567Z,75.75
2022-08-20T08:19:16.307Z,74.78
2022-08-20T08:21:44.223Z,73.70
2022-08-20T08:24:13.489Z,72.90
2022-08-20T08:26:42.399Z,72.70
2022-08-20T08:29:08.821Z,72.34
2022-08-20T08:31:35.436Z,72.93
2022-08-20T08:34:02.023Z,72.53
2022-08-20T08:36:28.570Z,72.35
2022-08-20T08:38:56.514Z,72.40
2022-08-20T08:41:47.990Z,70.24
2022-08-20T08:44:24.539Z,70.56
2022-08-20T08:47:01.054Z,70.86
2022-08-20T08:49:38.136Z,71.81
2022-08-20T08:52:12.154Z,71.69
2022-08-20T08:54:46.538Z,72.09
2022-08-20T08:57:13.162Z,72.90
2022-08-20T08:59:52.118Z,72.36
2022-08-20T09:02:30.774Z,71.87
2022-08-20T09:05:00.797Z,73.12
2022-08-20T09:07:31.489Z,73.77
2022-08-20T09:09:58.919Z,73.27
2022-08-20T09:12:29.752Z,72.38
2022-08-20T09:14:57.362Z,72.30
2022-08-20T09:17:25.448Z,72.03
2022-08-20T09:19:52.344Z,72.63
2022-08-20T09:22:22.200Z,73.01
2022-08-20T09:24:49.996Z,73.54
2022-08-20T09:27:17.386Z,75.81
2022-08-20T09:29:43.957Z,76.17
2022-08-20T09:32:14.832Z,76.17
2022-08-20T09:34:44.734Z,75.60
2022-08-20T09:37:12.258Z,73.87
2022-08-20T09:39:39.455Z,73.83
2022-08-20T09:42:20.280Z,73.77
2022-08-20T09:44:47.345Z,74.30
2022-08-20T09:47:14.614Z,73.17
2022-08-20T09:49:41.813Z,74.55
2022-08-20T09:52:10.416Z,74.97
2022-08-20T09:54:39.884Z,76.78
2022-08-20T09:57:17.497Z,78.32
2022-08-20T09:59:57.162Z,80.24
2022-08-20T10:02:25.646Z,78.56
2022-08-20T10:04:52.185Z,77.36
2022-08-20T10:07:20.044Z,75.68
2022-08-20T10:09:46.538Z,75.03
2022-08-20T10:12:13.407Z,75.21
2022-08-20T10:14:41.682Z,76.29
2022-08-20T10:17:08.313Z,75.72
2022-08-20T10:19:34.851Z,74.41
2022-08-20T10:22:01.833Z,73.74
2022-08-20T10:24:29.782Z,73.15
2022-08-20T10:26:58.773Z,71.93
2022-08-20T10:29:27.258Z,71.48
2022-08-20T10:32:07.406Z,70.97
2022-08-20T10:34:33.885Z,71.36
2022-08-20T10:37:00.924Z,71.11
2022-08-20T10:39:27.652Z,71.01
2022-08-20T10:41:58.510Z,71.19
2022-08-20T10:44:25.984Z,69.55
2022-08-20T10:46:53.600Z,69.76
2022-08-20T10:49:24.856Z,69.33
2022-08-20T10:51:51.379Z,67.76
2022-08-20T10:54:18.547Z,66.36
2022-08-20T10:56:45.069Z,64.59
2022-08-20T10:59:11.511Z,66.24
2022-08-20T11:01:38.213Z,64.81
2022-08-20T11:04:05.099Z,63.34
2022-08-20T11:06:31.566Z,61.83
2022-08-20T11:08:58.461Z,62.70
2022-08-20T11:11:25.606Z,62.59
2022-08-20T11:13:52.195Z,62.43
2022-08-20T11:16:18.810Z,62.69
2022-08-20T11:18:47.627Z,63.07
2022-08-20T11:21:14.588Z,62.01
2022-08-20T11:23:41.527Z,62.02
2022-08-20T11:26:08.628Z,61.91
2022-08-20T11:28:35.228Z,61.73
2022-08-20T11:31:01.924Z,61.06
2022-08-20T11:33:28.640Z,59.61
2022-08-20T11:35:55.858Z,59.18
2022-08-20T11:38:22.358Z,58.43
2022-08-20T11:40:48.894Z,57.47
2022-08-20T11:43:17.424Z,59.74
2022-08-20T11:45:47.561Z,60.01
2022-08-20T11:48:21.814Z,59.71
2022-08-20T11:50:50.201Z,58.74
2022-08-20T11:53:17.646Z,58.55
2022-08-20T11:55:44.619Z,58.45
2022-08-20T11:58:11.497Z,58.31
2022-08-20T12:00:38.278Z,59.11
2022-08-20T12:03:09.456Z,60.46
2022-08-20T12:05:41.526Z,58.79
2022-08-20T12:08:09.159Z,56.70
2022-08-20T12:10:36.710Z,55.65
2022-08-20T12:13:04.578Z,55.18
2022-08-20T12:15:32.885Z,54.57
2022-08-20T12:17:59.779Z,55.33
2022-08-20T12:20:26.714Z,54.75
2022-08-20T12:22:54.616Z,55.83
2022-08-20T12:25:21.391Z,55.07
2022-08-20T12:27:47.908Z,55.17
2022-08-20T12:30:17.760Z,56.42
2022-08-20T12:32:44.763Z,56.57
2022-08-20T12:35:12.482Z,56.99
2022-08-20T12:37:39.445Z,58.02
2022-08-20T12:40:10.739Z,58.81
2022-08-20T12:42:37.802Z,59.48
2022-08-20T12:45:05.829Z,59.58
2022-08-20T12:47:35.218Z,59.69
2022-08-20T12:50:06.570Z,59.83
2022-08-20T12:52:33.702Z,58.75
2022-08-20T12:55:01.160Z,56.82
2022-08-20T12:57:28.987Z,56.56
2022-08-20T12:59:58.997Z,56.57
2022-08-20T13:02:26.094Z,56.02
2022-08-20T13:04:52.691Z,55.21
2022-08-20T13:07:19.325Z,54.35
2022-08-20T13:09:45.855Z,54.00
2022-08-20T13:12:14.435Z,53.19
2022-08-20T13:14:41.815Z,51.93
2022-08-20T13:17:08.947Z,52.35
2022-08-20T13:19:37.472Z,52.89
2022-08-20T13:22:05.501Z,51.35
2022-08-20T13:24:32.229Z,51.04
2022-08-20T13:27:11.093Z,51.18
2022-08-20T13:29:38.367Z,51.04
2022-08-20T13:32:05.563Z,51.36
2022-08-20T13:34:32.124Z,51.54
2022-08-20T13:36:58.783Z,52.74
2022-08-20T13:39:25.831Z,53.70
2022-08-20T13:41:52.286Z,53.52
2022-08-20T13:44:32.980Z,53.40
2022-08-20T13:49:57.557Z,50.28
2022-08-20T13:52:24.974Z,49.47
2022-08-20T13:54:52.667Z,49.32
2022-08-20T13:57:20.979Z,46.06
2022-08-20T13:59:50.639Z,46.38
2022-08-20T14:02:17.558Z,46.74
2022-08-20T14:04:45.231Z,44.99
2022-08-20T14:07:28.852Z,43.95
2022-08-20T14:10:01.097Z,44.55
2022-08-20T14:12:30.519Z,44.24
2022-08-20T14:14:57.794Z,44.47
2022-08-20T14:17:27.770Z,44.44
2022-08-20T14:20:01.964Z,44.17
2022-08-20T14:22:29.719Z,43.40
2022-08-20T14:24:57.482Z,42.26
2022-08-20T14:27:29.222Z,42.75
2022-08-20T14:29:58.853Z,42.57
2022-08-20T14:32:25.884Z,42.48
2022-08-20T14:34:53.806Z,42.54
2022-08-20T14:37:31.174Z,42.88
2022-08-20T14:40:08.143Z,43.64
2022-08-20T14:42:35.436Z,43.85
2022-08-20T14:45:04.356Z,44.21
2022-08-20T14:47:35.156Z,44.10
2022-08-20T14:50:08.742Z,43.73
2022-08-20T14:52:36.676Z,43.56
2022-08-20T14:55:05.182Z,43.52
2022-08-20T14:57:32.401Z,43.48
2022-08-20T14:59:58.968Z,44.20
2022-08-20T15:02:25.950Z,44.19
2022-08-20T15:04:54.405Z,44.64
2022-08-20T15:07:32.171Z,44.38
2022-08-20T15:10:01.108Z,44.20
2022-08-20T15:12:28.591Z,43.85
2022-08-20T15:14:59.704Z,43.61
2022-08-20T15:17:38.130Z,42.45
2022-08-20T15:20:10.688Z,42.56
2022-08-20T15:22:48.731Z,42.64
2022-08-20T15:25:18.773Z,42.66
2022-08-20T15:27:47.016Z,42.63
2022-08-20T15:30:21.041Z,43.68
2022-08-20T15:32:51.401Z,43.97
2022-08-20T15:35:21.508Z,44.39
2022-08-20T15:37:50.250Z,44.24
2022-08-20T15:40:27.838Z,44.24
2022-08-20T15:42:55.995Z,44.36
2022-08-20T15:45:22.465Z,43.23
2022-08-20T15:47:54.060Z,42.80
2022-08-20T15:50:48.318Z,42.46
2022-08-20T15:53:25.114Z,42.61
2022-08-20T15:55:59.430Z,42.77
2022-08-20T15:59:03.938Z,42.96
2022-08-20T16:01:48.964Z,43.35
2022-08-20T16:04:25.974Z,42.99
2022-08-20T16:07:00.239Z,43.22
2022-08-20T16:09:46.800Z,42.71
2022-08-20T16:12:31.554Z,42.69
2022-08-20T16:15:08.724Z,41.84
2022-08-20T16:17:47.831Z,41.76
2022-08-20T16:20:18.690Z,42.41
2022-08-20T16:22:46.799Z,42.74
2022-08-20T16:25:16.615Z,44.11
2022-08-20T16:27:57.891Z,44.77
2022-08-20T16:30:37.450Z,44.09
2022-08-20T16:33:14.641Z,44.44
2022-08-20T16:35:51.034Z,44.48
2022-08-20T16:38:24.855Z,44.83
2022-08-20T16:40:57.115Z,44.79
2022-08-20T16:43:56.272Z,44.65
2022-08-20T16:46:34.982Z,44.25
2022-08-20T16:49:11.249Z,44.23
2022-08-20T16:51:41.369Z,44.36
2022-08-20T16:54:10.283Z,44.21
2022-08-20T16:56:42.631Z,44.54
2022-08-20T16:59:12.634Z,44.83
2022-08-20T17:02:08.294Z,45.19
2022-08-20T17:04:58.535Z,44.93
2022-08-20T17:07:51.212Z,45.33
2022-08-20T17:10:27.855Z,45.21
2022-08-20T17:12:59.319Z,45.37
2022-08-20T17:15:33.505Z,45.22
2022-08-20T17:18:28.769Z,45.93
2022-08-20T17:21:11.808Z,46.30
2022-08-20T17:23:55.527Z,46.24
2022-08-20T17:26:36.003Z,46.58
2022-08-20T17:29:21.182Z,46.18
2022-08-20T17:31:51.840Z,46.31
2022-08-20T17:34:23.200Z,46.21
2022-08-20T17:37:10.364Z,46.08
2022-08-20T17:39:46.593Z,46.02
2022-08-20T17:42:26.209Z,46.08
2022-08-20T17:45:21.801Z,46.69
2022-08-20T17:47:48.686Z,46.73
2022-08-20T17:50:20.116Z,46.94
2022-08-20T17:52:50.853Z,47.36
2022-08-20T17:55:19.316Z,47.22
2022-08-20T17:57:49.598Z,47.22
2022-08-20T18:00:32.939Z,47.87
2022-08-20T18:03:13.145Z,47.93
2022-08-20T18:05:39.735Z,47.91
2022-08-20T18:08:16.531Z,48.10
2022-08-20T18:10:56.781Z,48.17
2022-08-20T18:13:38.201Z,48.52
2022-08-20T18:16:25.512Z,48.13
2022-08-20T18:19:16.295Z,48.27
2022-08-20T18:22:01.457Z,48.52
2022-08-20T18:24:37.015Z,48.57
2022-08-20T18:27:09.035Z,48.46
2022-08-20T18:29:41.032Z,48.12
2022-08-20T18:32:24.092Z,48.34
2022-08-20T18:34:52.583Z,48.45
2022-08-20T18:37:19.002Z,48.46
2022-08-20T18:39:48.678Z,48.87
2022-08-20T18:42:27.604Z,48.81
2022-08-20T18:44:58.639Z,49.78
2022-08-20T18:47:34.279Z,49.66
2022-08-20T18:50:15.901Z,49.60
2022-08-20T18:52:50.259Z,50.34
2022-08-20T18:55:41.809Z,50.13
2022-08-20T18:58:12.810Z,50.58
2022-08-20T19:00:47.670Z,51.26
2022-08-20T19:03:30.344Z,50.38
2022-08-20T19:06:05.703Z,50.73
2022-08-20T19:09:09.779Z,50.33
2022-08-20T19:11:48.141Z,50.83
2022-08-20T19:14:54.430Z,50.56
2022-08-20T19:17:40.407Z,52.24
2022-08-20T19:20:18.025Z,52.14
2022-08-20T19:22:47.924Z,51.81
2022-08-20T19:25:51.203Z,51.42
2022-08-20T19:28:25.404Z,51.60
2022-08-20T19:30:52.198Z,51.39
2022-08-20T19:33:31.952Z,51.27
2022-08-20T19:36:22.189Z,51.63
2022-08-20T19:38:59.109Z,52.12
2022-08-20T19:41:35.179Z,52.38
2022-08-20T19:44:02.863Z,53.01
2022-08-20T19:46:36.169Z,52.97
2022-08-20T19:49:19.351Z,52.66
2022-08-20T19:52:10.361Z,53.33
2022-08-20T19:54:46.717Z,53.49
2022-08-20T19:57:14.209Z,54.14
2022-08-20T19:59:52.133Z,54.10
2022-08-20T20:02:24.391Z,53.83
2022-08-20T20:04:55.581Z,54.09
2022-08-20T20:07:41.041Z,53.84
2022-08-20T20:10:11.714Z,54.26
2022-08-20T20:12:39.234Z,54.20
2022-08-20T20:15:07.305Z,54.22
2022-08-20T20:17:36.462Z,54.37
2022-08-20T20:20:32.434Z,54.29
2022-08-20T20:23:06.548Z,55.16
2022-08-20T20:25:34.079Z,55.47
2022-08-20T20:28:24.411Z,56.02
2022-08-20T20:30:50.994Z,56.11
2022-08-20T20:33:37.592Z,56.38
2022-08-20T20:36:18.009Z,56.56
2022-08-20T20:39:00.447Z,56.14
2022-08-20T20:41:29.789Z,56.32
2022-08-20T20:44:17.705Z,56.68
2022-08-20T20:46:47.279Z,56.83
2022-08-20T20:50:01.333Z,56.44
2022-08-20T20:52:37.442Z,56.11
2022-08-20T20:55:15.169Z,56.95
2022-08-20T20:57:42.090Z,56.29
2022-08-20T21:00:13.050Z,56.76
2022-08-20T21:02:40.640Z,56.92
2022-08-20T21:05:07.502Z,57.08
2022-08-20T21:07:34.151Z,57.54
2022-08-20T21:10:00.576Z,57.35
2022-08-20T21:12:32.551Z,57.59
2022-08-20T21:14:59.231Z,57.52
2022-08-20T21:17:27.157Z,57.89
2022-08-20T21:19:54.462Z,57.89
2022-08-20T21:22:21.732Z,57.73
2022-08-20T21:24:51.258Z,57.69
2022-08-20T21:27:24.395Z,58.22
2022-08-20T21:29:52.518Z,58.44
2022-08-20T21:32:19.014Z,58.11
2022-08-20T21:34:46.211Z,58.55
2022-08-20T21:37:12.680Z,58.75
2022-08-20T21:39:39.656Z,58.94
2022-08-20T21:42:18.512Z,58.56
2022-08-20T21:45:20.451Z,58.99
2022-08-20T21:47:48.795Z,58.38
2022-08-20T21:50:20.438Z,58.56
2022-08-20T21:52:55.364Z,59.02
2022-08-20T21:55:39.437Z,58.73
2022-08-20T21:58:07.082Z,59.56
2022-08-20T22:00:54.650Z,59.86
2022-08-20T22:03:25.569Z,59.89
2022-08-20T22:05:52.495Z,60.58
2022-08-20T22:08:20.179Z,60.76
2022-08-20T22:10:47.046Z,61.35
2022-08-20T22:13:23.043Z,61.61
2022-08-20T22:15:49.632Z,61.79
2022-08-20T22:18:17.714Z,61.66
2022-08-20T22:20:44.478Z,61.96
2022-08-20T22:23:11.806Z,62.09
2022-08-20T22:25:38.318Z,62.29
2022-08-20T22:28:04.909Z,62.44
2022-08-20T22:30:31.966Z,62.38
2022-08-20T22:33:05.231Z,62.55
2022-08-20T22:35:32.290Z,62.50
2022-08-20T22:37:59.481Z,63.07
2022-08-20T22:40:29.712Z,62.65
2022-08-20T22:42:56.783Z,62.70
2022-08-20T22:45:24.654Z,62.90
2022-08-20T22:47:51.816Z,63.02
2022-08-20T22:50:22.647Z,63.03
2022-08-20T22:52:49.208Z,63.44
2022-08-20T22:55:16.847Z,63.18
2022-08-20T22:57:46.741Z,63.22
2022-08-20T23:00:19.837Z,63.39
2022-08-20T23:02:52.829Z,63.73
2022-08-20T23:05:22.945Z,63.84
2022-08-20T23:07:53.466Z,63.53
2022-08-20T23:10:21.886Z,64.44
2022-08-20T23:12:48.361Z,64.79
2022-08-20T23:15:16.646Z,64.83
2022-08-20T23:17:43.524Z,64.74
2022-08-20T23:20:13.123Z,64.66
2022-08-20T23:22:39.586Z,65.28
2022-08-20T23:25:08.015Z,64.65
2022-08-20T23:27:41.334Z,65.76
2022-08-20T23:30:08.260Z,65.37
2022-08-20T23:32:34.842Z,66.01
2022-08-20T23:35:01.932Z,65.93
2022-08-20T23:37:28.511Z,65.81
2022-08-20T23:39:56.562Z,66.11
2022-08-20T23:42:23.114Z,66.10
2022-08-20T23:44:49.605Z,66.37
2022-08-20T23:47:20.150Z,66.89
2022-08-20T23:49:47.039Z,66.35
2022-08-20T23:52:13.553Z,66.82
2022-08-20T23:54:40.894Z,67.00
2022-08-20T23:57:08.105Z,66.27
2022-08-20T23:59:35.736Z,66.04
